sensor_id;sensor_type;location;lat;lon;timestamp;P1;durP1;ratioP1;P2;durP2;ratioP2
71937;SDS011;59810;48.800;9.086;2023-03-04T00:01:14;38.07;;;13.33;;
71937;SDS011;59810;48.800;9.086;2023-03-04T00:03:40;33.90;;;13.57;;
71937;SDS011;59810;48.800;9.086;2023-03-04T00:06:06;33.55;;;12.70;;
71937;SDS011;59810;48.800;9.086;2023-03-04T00:08:32;31.58;;;12.75;;
71937;SDS011;59810;48.800;9.086;2023-03-04T00:10:57;35.27;;;12.40;;
71937;SDS011;59810;48.800;9.086;2023-03-04T00:13:22;32.80;;;12.67;;
71937;SDS011;59810;48.800;9.086;2023-03-04T00:15:49;34.90;;;13.07;;
71937;SDS011;59810;48.800;9.086;2023-03-04T00:18:15;37.05;;;13.10;;
71937;SDS011;59810;48.800;9.086;2023-03-04T00:20:40;38.83;;;13.60;;
71937;SDS011;59810;48.800;9.086;2023-03-04T00:23:06;33.60;;;12.80;;
71937;SDS011;59810;48.800;9.086;2023-03-04T00:25:32;31.63;;;13.70;;
71937;SDS011;59810;48.800;9.086;2023-03-04T00:27:58;33.07;;;11.93;;
71937;SDS011;59810;48.800;9.086;2023-03-04T00:30:25;31.20;;;12.10;;
71937;SDS011;59810;48.800;9.086;2023-03-04T00:32:53;35.80;;;12.80;;
71937;SDS011;59810;48.800;9.086;2023-03-04T00:35:18;38.83;;;13.13;;
71937;SDS011;59810;48.800;9.086;2023-03-04T00:37:43;29.80;;;11.60;;
71937;SDS011;59810;48.800;9.086;2023-03-04T00:40:09;32.43;;;11.83;;
71937;SDS011;59810;48.800;9.086;2023-03-04T00:42:35;29.60;;;10.95;;
71937;SDS011;59810;48.800;9.086;2023-03-04T00:45:00;36.53;;;13.93;;
71937;SDS011;59810;48.800;9.086;2023-03-04T00:47:26;34.20;;;12.48;;
71937;SDS011;59810;48.800;9.086;2023-03-04T00:49:51;32.80;;;13.20;;
71937;SDS011;59810;48.800;9.086;2023-03-04T00:52:16;31.70;;;12.30;;
71937;SDS011;59810;48.800;9.086;2023-03-04T00:54:42;33.13;;;13.10;;
71937;SDS011;59810;48.800;9.086;2023-03-04T00:57:07;33.27;;;12.13;;
71937;SDS011;59810;48.800;9.086;2023-03-04T00:59:32;36.13;;;13.40;;
71937;SDS011;59810;48.800;9.086;2023-03-04T01:01:58;35.70;;;13.68;;
71937;SDS011;59810;48.800;9.086;2023-03-04T01:04:23;33.77;;;11.43;;
71937;SDS011;59810;48.800;9.086;2023-03-04T01:06:48;33.80;;;13.40;;
71937;SDS011;59810;48.800;9.086;2023-03-04T01:09:14;31.00;;;13.10;;
71937;SDS011;59810;48.800;9.086;2023-03-04T01:11:39;34.53;;;11.77;;
71937;SDS011;59810;48.800;9.086;2023-03-04T01:14:05;33.67;;;12.93;;
71937;SDS011;59810;48.800;9.086;2023-03-04T01:16:30;29.90;;;11.67;;
71937;SDS011;59810;48.800;9.086;2023-03-04T01:18:55;31.15;;;11.65;;
71937;SDS011;59810;48.800;9.086;2023-03-04T01:21:21;32.77;;;12.47;;
71937;SDS011;59810;48.800;9.086;2023-03-04T01:23:46;34.33;;;12.87;;
71937;SDS011;59810;48.800;9.086;2023-03-04T01:26:11;29.77;;;12.93;;
71937;SDS011;59810;48.800;9.086;2023-03-04T01:28:37;44.77;;;13.77;;
71937;SDS011;59810;48.800;9.086;2023-03-04T01:31:02;34.10;;;13.70;;
71937;SDS011;59810;48.800;9.086;2023-03-04T01:33:30;33.20;;;11.88;;
71937;SDS011;59810;48.800;9.086;2023-03-04T01:35:56;33.30;;;12.30;;
71937;SDS011;59810;48.800;9.086;2023-03-04T01:38:22;35.23;;;12.80;;
71937;SDS011;59810;48.800;9.086;2023-03-04T01:40:47;35.72;;;12.00;;
71937;SDS011;59810;48.800;9.086;2023-03-04T01:43:15;29.80;;;11.93;;
71937;SDS011;59810;48.800;9.086;2023-03-04T01:45:47;28.70;;;11.35;;
71937;SDS011;59810;48.800;9.086;2023-03-04T01:48:17;32.38;;;13.52;;
71937;SDS011;59810;48.800;9.086;2023-03-04T01:50:48;29.63;;;11.50;;
71937;SDS011;59810;48.800;9.086;2023-03-04T01:53:18;35.22;;;11.88;;
71937;SDS011;59810;48.800;9.086;2023-03-04T01:55:46;36.22;;;12.70;;
71937;SDS011;59810;48.800;9.086;2023-03-04T01:58:12;29.70;;;11.48;;
71937;SDS011;59810;48.800;9.086;2023-03-04T02:00:37;32.37;;;12.43;;
71937;SDS011;59810;48.800;9.086;2023-03-04T02:03:07;33.17;;;12.50;;
71937;SDS011;59810;48.800;9.086;2023-03-04T02:05:40;30.53;;;11.77;;
71937;SDS011;59810;48.800;9.086;2023-03-04T02:08:08;33.63;;;11.93;;
71937;SDS011;59810;48.800;9.086;2023-03-04T02:10:34;34.90;;;12.75;;
71937;SDS011;59810;48.800;9.086;2023-03-04T02:13:00;37.38;;;14.50;;
71937;SDS011;59810;48.800;9.086;2023-03-04T02:15:26;38.80;;;12.83;;
71937;SDS011;59810;48.800;9.086;2023-03-04T02:17:55;32.40;;;12.90;;
71937;SDS011;59810;48.800;9.086;2023-03-04T02:20:33;34.17;;;12.43;;
71937;SDS011;59810;48.800;9.086;2023-03-04T02:23:01;31.40;;;11.73;;
71937;SDS011;59810;48.800;9.086;2023-03-04T02:25:30;33.30;;;11.52;;
71937;SDS011;59810;48.800;9.086;2023-03-04T02:28:01;32.33;;;12.02;;
71937;SDS011;59810;48.800;9.086;2023-03-04T02:30:27;35.30;;;11.87;;
71937;SDS011;59810;48.800;9.086;2023-03-04T02:32:52;32.53;;;12.67;;
71937;SDS011;59810;48.800;9.086;2023-03-04T02:35:18;33.33;;;13.18;;
71937;SDS011;59810;48.800;9.086;2023-03-04T02:37:45;35.38;;;12.07;;
71937;SDS011;59810;48.800;9.086;2023-03-04T02:40:14;34.40;;;12.33;;
71937;SDS011;59810;48.800;9.086;2023-03-04T02:42:45;34.65;;;11.43;;
71937;SDS011;59810;48.800;9.086;2023-03-04T02:47:56;33.55;;;11.13;;
71937;SDS011;59810;48.800;9.086;2023-03-04T02:50:22;31.73;;;11.43;;
71937;SDS011;59810;48.800;9.086;2023-03-04T02:52:48;32.17;;;11.50;;
71937;SDS011;59810;48.800;9.086;2023-03-04T02:55:13;29.10;;;11.70;;
71937;SDS011;59810;48.800;9.086;2023-03-04T02:57:38;28.08;;;11.85;;
71937;SDS011;59810;48.800;9.086;2023-03-04T03:00:04;32.10;;;11.90;;
71937;SDS011;59810;48.800;9.086;2023-03-04T03:02:32;32.37;;;11.90;;
71937;SDS011;59810;48.800;9.086;2023-03-04T03:04:57;30.40;;;10.88;;
71937;SDS011;59810;48.800;9.086;2023-03-04T03:07:22;29.97;;;11.50;;
71937;SDS011;59810;48.800;9.086;2023-03-04T03:09:50;33.83;;;12.02;;
71937;SDS011;59810;48.800;9.086;2023-03-04T03:12:15;31.07;;;11.40;;
71937;SDS011;59810;48.800;9.086;2023-03-04T03:14:41;29.30;;;11.70;;
71937;SDS011;59810;48.800;9.086;2023-03-04T03:17:09;28.50;;;10.37;;
71937;SDS011;59810;48.800;9.086;2023-03-04T03:19:35;35.20;;;12.57;;
71937;SDS011;59810;48.800;9.086;2023-03-04T03:22:00;35.93;;;11.50;;
71937;SDS011;59810;48.800;9.086;2023-03-04T03:24:28;27.77;;;10.98;;
71937;SDS011;59810;48.800;9.086;2023-03-04T03:26:53;26.60;;;10.53;;
71937;SDS011;59810;48.800;9.086;2023-03-04T03:29:18;25.37;;;10.07;;
71937;SDS011;59810;48.800;9.086;2023-03-04T03:31:44;29.00;;;10.40;;
71937;SDS011;59810;48.800;9.086;2023-03-04T03:34:09;26.83;;;11.00;;
71937;SDS011;59810;48.800;9.086;2023-03-04T03:36:34;24.57;;;9.73;;
71937;SDS011;59810;48.800;9.086;2023-03-04T03:38:59;30.97;;;11.03;;
71937;SDS011;59810;48.800;9.086;2023-03-04T03:41:25;27.77;;;9.97;;
71937;SDS011;59810;48.800;9.086;2023-03-04T03:43:50;27.23;;;9.50;;
71937;SDS011;59810;48.800;9.086;2023-03-04T03:46:15;28.63;;;10.27;;
71937;SDS011;59810;48.800;9.086;2023-03-04T03:48:42;28.65;;;10.55;;
71937;SDS011;59810;48.800;9.086;2023-03-04T03:51:07;29.23;;;11.10;;
71937;SDS011;59810;48.800;9.086;2023-03-04T03:53:33;27.75;;;9.48;;
71937;SDS011;59810;48.800;9.086;2023-03-04T03:55:58;30.80;;;10.97;;
71937;SDS011;59810;48.800;9.086;2023-03-04T03:58:24;29.30;;;9.97;;
71937;SDS011;59810;48.800;9.086;2023-03-04T04:00:51;29.83;;;10.90;;
71937;SDS011;59810;48.800;9.086;2023-03-04T04:03:17;30.87;;;10.93;;
71937;SDS011;59810;48.800;9.086;2023-03-04T04:05:43;28.67;;;10.02;;
71937;SDS011;59810;48.800;9.086;2023-03-04T04:08:15;30.63;;;10.20;;
71937;SDS011;59810;48.800;9.086;2023-03-04T04:10:41;25.80;;;10.27;;
71937;SDS011;59810;48.800;9.086;2023-03-04T04:13:07;29.70;;;10.87;;
71937;SDS011;59810;48.800;9.086;2023-03-04T04:15:32;26.20;;;10.47;;
71937;SDS011;59810;48.800;9.086;2023-03-04T04:17:58;29.30;;;10.75;;
71937;SDS011;59810;48.800;9.086;2023-03-04T04:20:23;26.03;;;8.80;;
71937;SDS011;59810;48.800;9.086;2023-03-04T04:22:48;26.63;;;10.07;;
71937;SDS011;59810;48.800;9.086;2023-03-04T04:25:14;27.33;;;10.90;;
71937;SDS011;59810;48.800;9.086;2023-03-04T04:27:39;25.10;;;9.73;;
71937;SDS011;59810;48.800;9.086;2023-03-04T04:30:05;25.73;;;9.63;;
71937;SDS011;59810;48.800;9.086;2023-03-04T04:32:30;29.25;;;10.90;;
71937;SDS011;59810;48.800;9.086;2023-03-04T04:34:56;27.20;;;10.43;;
71937;SDS011;59810;48.800;9.086;2023-03-04T04:37:21;26.57;;;9.97;;
71937;SDS011;59810;48.800;9.086;2023-03-04T04:39:47;28.43;;;10.83;;
71937;SDS011;59810;48.800;9.086;2023-03-04T04:42:14;27.90;;;9.45;;
71937;SDS011;59810;48.800;9.086;2023-03-04T04:44:39;24.90;;;10.50;;
71937;SDS011;59810;48.800;9.086;2023-03-04T04:47:08;25.07;;;9.43;;
71937;SDS011;59810;48.800;9.086;2023-03-04T04:49:33;29.45;;;9.70;;
71937;SDS011;59810;48.800;9.086;2023-03-04T04:51:59;27.80;;;10.07;;
71937;SDS011;59810;48.800;9.086;2023-03-04T04:54:24;30.38;;;9.90;;
71937;SDS011;59810;48.800;9.086;2023-03-04T04:56:50;26.53;;;9.30;;
71937;SDS011;59810;48.800;9.086;2023-03-04T04:59:17;27.53;;;10.17;;
71937;SDS011;59810;48.800;9.086;2023-03-04T05:01:45;27.58;;;9.65;;
71937;SDS011;59810;48.800;9.086;2023-03-04T05:04:13;22.00;;;8.23;;
71937;SDS011;59810;48.800;9.086;2023-03-04T05:06:38;26.70;;;10.27;;
71937;SDS011;59810;48.800;9.086;2023-03-04T05:09:04;27.67;;;9.97;;
71937;SDS011;59810;48.800;9.086;2023-03-04T05:11:30;29.93;;;9.50;;
71937;SDS011;59810;48.800;9.086;2023-03-04T05:13:55;31.83;;;9.80;;
71937;SDS011;59810;48.800;9.086;2023-03-04T05:16:20;28.60;;;9.33;;
71937;SDS011;59810;48.800;9.086;2023-03-04T05:18:46;28.30;;;10.27;;
71937;SDS011;59810;48.800;9.086;2023-03-04T05:21:11;26.07;;;9.20;;
71937;SDS011;59810;48.800;9.086;2023-03-04T05:23:37;30.07;;;9.97;;
71937;SDS011;59810;48.800;9.086;2023-03-04T05:26:05;27.50;;;10.10;;
71937;SDS011;59810;48.800;9.086;2023-03-04T05:28:32;26.25;;;9.25;;
71937;SDS011;59810;48.800;9.086;2023-03-04T05:30:58;25.98;;;9.82;;
71937;SDS011;59810;48.800;9.086;2023-03-04T05:33:24;26.13;;;9.68;;
71937;SDS011;59810;48.800;9.086;2023-03-04T05:35:49;30.10;;;10.13;;
71937;SDS011;59810;48.800;9.086;2023-03-04T05:38:16;25.00;;;9.50;;
71937;SDS011;59810;48.800;9.086;2023-03-04T05:40:43;27.77;;;9.43;;
71937;SDS011;59810;48.800;9.086;2023-03-04T05:43:10;30.35;;;11.20;;
71937;SDS011;59810;48.800;9.086;2023-03-04T05:45:35;27.93;;;10.97;;
71937;SDS011;59810;48.800;9.086;2023-03-04T05:48:01;28.33;;;9.68;;
71937;SDS011;59810;48.800;9.086;2023-03-04T05:50:27;29.85;;;11.32;;
71937;SDS011;59810;48.800;9.086;2023-03-04T05:52:55;27.53;;;10.23;;
71937;SDS011;59810;48.800;9.086;2023-03-04T05:55:20;26.70;;;9.45;;
71937;SDS011;59810;48.800;9.086;2023-03-04T05:57:46;30.33;;;10.93;;
71937;SDS011;59810;48.800;9.086;2023-03-04T06:00:12;29.40;;;10.15;;
71937;SDS011;59810;48.800;9.086;2023-03-04T06:02:38;27.93;;;10.47;;
71937;SDS011;59810;48.800;9.086;2023-03-04T06:05:08;29.15;;;10.35;;
71937;SDS011;59810;48.800;9.086;2023-03-04T06:07:34;27.70;;;11.00;;
71937;SDS011;59810;48.800;9.086;2023-03-04T06:09:59;29.30;;;10.43;;
71937;SDS011;59810;48.800;9.086;2023-03-04T06:12:25;28.60;;;10.47;;
71937;SDS011;59810;48.800;9.086;2023-03-04T06:14:52;30.87;;;9.70;;
71937;SDS011;59810;48.800;9.086;2023-03-04T06:17:18;30.80;;;10.60;;
71937;SDS011;59810;48.800;9.086;2023-03-04T06:19:43;33.83;;;11.73;;
71937;SDS011;59810;48.800;9.086;2023-03-04T06:22:09;32.70;;;11.03;;
71937;SDS011;59810;48.800;9.086;2023-03-04T06:24:35;34.53;;;11.48;;
71937;SDS011;59810;48.800;9.086;2023-03-04T06:27:00;30.77;;;10.83;;
71937;SDS011;59810;48.800;9.086;2023-03-04T06:29:26;31.10;;;12.20;;
71937;SDS011;59810;48.800;9.086;2023-03-04T06:31:54;30.57;;;11.37;;
71937;SDS011;59810;48.800;9.086;2023-03-04T06:34:20;35.83;;;12.60;;
71937;SDS011;59810;48.800;9.086;2023-03-04T06:36:45;32.47;;;12.50;;
71937;SDS011;59810;48.800;9.086;2023-03-04T06:39:13;51.55;;;17.08;;
71937;SDS011;59810;48.800;9.086;2023-03-04T06:41:41;42.33;;;14.03;;
71937;SDS011;59810;48.800;9.086;2023-03-04T06:44:09;40.38;;;13.05;;
71937;SDS011;59810;48.800;9.086;2023-03-04T06:46:34;34.30;;;11.75;;
71937;SDS011;59810;48.800;9.086;2023-03-04T06:49:00;28.80;;;11.43;;
71937;SDS011;59810;48.800;9.086;2023-03-04T06:51:26;33.63;;;11.47;;
71937;SDS011;59810;48.800;9.086;2023-03-04T06:53:51;31.20;;;11.97;;
71937;SDS011;59810;48.800;9.086;2023-03-04T06:56:17;33.10;;;12.02;;
71937;SDS011;59810;48.800;9.086;2023-03-04T06:58:42;37.43;;;12.50;;
71937;SDS011;59810;48.800;9.086;2023-03-04T07:01:25;30.38;;;11.65;;
71937;SDS011;59810;48.800;9.086;2023-03-04T07:03:54;30.90;;;10.83;;
71937;SDS011;59810;48.800;9.086;2023-03-04T07:06:21;34.25;;;12.02;;
71937;SDS011;59810;48.800;9.086;2023-03-04T07:08:50;37.92;;;13.30;;
71937;SDS011;59810;48.800;9.086;2023-03-04T07:11:16;41.58;;;12.50;;
71937;SDS011;59810;48.800;9.086;2023-03-04T07:13:49;40.72;;;13.13;;
71937;SDS011;59810;48.800;9.086;2023-03-04T07:16:16;29.83;;;11.00;;
71937;SDS011;59810;48.800;9.086;2023-03-04T07:18:43;33.42;;;12.27;;
71937;SDS011;59810;48.800;9.086;2023-03-04T07:21:09;31.90;;;11.23;;
71937;SDS011;59810;48.800;9.086;2023-03-04T07:23:35;36.25;;;11.63;;
71937;SDS011;59810;48.800;9.086;2023-03-04T07:26:01;31.70;;;11.80;;
71937;SDS011;59810;48.800;9.086;2023-03-04T07:28:27;36.47;;;11.75;;
71937;SDS011;59810;48.800;9.086;2023-03-04T07:30:52;32.90;;;11.87;;
71937;SDS011;59810;48.800;9.086;2023-03-04T07:33:17;34.20;;;11.38;;
71937;SDS011;59810;48.800;9.086;2023-03-04T07:35:43;31.57;;;11.90;;
71937;SDS011;59810;48.800;9.086;2023-03-04T07:38:08;29.33;;;10.03;;
71937;SDS011;59810;48.800;9.086;2023-03-04T07:40:34;30.10;;;10.70;;
71937;SDS011;59810;48.800;9.086;2023-03-04T07:43:02;28.27;;;10.43;;
71937;SDS011;59810;48.800;9.086;2023-03-04T07:45:29;29.00;;;9.85;;
71937;SDS011;59810;48.800;9.086;2023-03-04T07:47:57;29.90;;;11.60;;
71937;SDS011;59810;48.800;9.086;2023-03-04T07:50:23;28.77;;;10.17;;
71937;SDS011;59810;48.800;9.086;2023-03-04T07:52:48;26.90;;;9.52;;
71937;SDS011;59810;48.800;9.086;2023-03-04T07:55:17;29.30;;;9.70;;
71937;SDS011;59810;48.800;9.086;2023-03-04T07:57:45;30.92;;;10.57;;
71937;SDS011;59810;48.800;9.086;2023-03-04T08:00:14;31.98;;;10.93;;
71937;SDS011;59810;48.800;9.086;2023-03-04T08:02:43;26.95;;;10.05;;
71937;SDS011;59810;48.800;9.086;2023-03-04T08:05:10;28.00;;;10.07;;
71937;SDS011;59810;48.800;9.086;2023-03-04T08:07:36;32.53;;;11.05;;
71937;SDS011;59810;48.800;9.086;2023-03-04T08:10:01;34.23;;;11.53;;
71937;SDS011;59810;48.800;9.086;2023-03-04T08:12:29;31.05;;;11.10;;
71937;SDS011;59810;48.800;9.086;2023-03-04T08:14:55;35.03;;;11.17;;
71937;SDS011;59810;48.800;9.086;2023-03-04T08:17:20;31.93;;;11.17;;
71937;SDS011;59810;48.800;9.086;2023-03-04T08:19:45;32.13;;;11.57;;
71937;SDS011;59810;48.800;9.086;2023-03-04T08:22:11;34.10;;;10.53;;
71937;SDS011;59810;48.800;9.086;2023-03-04T08:24:39;30.20;;;10.75;;
71937;SDS011;59810;48.800;9.086;2023-03-04T08:27:04;31.50;;;11.23;;
71937;SDS011;59810;48.800;9.086;2023-03-04T08:29:32;36.33;;;11.38;;
71937;SDS011;59810;48.800;9.086;2023-03-04T08:31:59;34.20;;;11.80;;
71937;SDS011;59810;48.800;9.086;2023-03-04T08:34:26;33.17;;;11.67;;
71937;SDS011;59810;48.800;9.086;2023-03-04T08:36:54;35.33;;;11.40;;
71937;SDS011;59810;48.800;9.086;2023-03-04T08:39:19;32.07;;;11.23;;
71937;SDS011;59810;48.800;9.086;2023-03-04T08:41:45;29.53;;;10.83;;
71937;SDS011;59810;48.800;9.086;2023-03-04T08:44:12;34.72;;;11.60;;
71937;SDS011;59810;48.800;9.086;2023-03-04T08:46:38;31.20;;;11.52;;
71937;SDS011;59810;48.800;9.086;2023-03-04T08:49:05;29.30;;;10.98;;
71937;SDS011;59810;48.800;9.086;2023-03-04T08:51:31;30.15;;;11.02;;
71937;SDS011;59810;48.800;9.086;2023-03-04T08:53:59;34.70;;;11.97;;
71937;SDS011;59810;48.800;9.086;2023-03-04T08:56:25;31.38;;;10.32;;
71937;SDS011;59810;48.800;9.086;2023-03-04T08:58:50;30.93;;;11.47;;
71937;SDS011;59810;48.800;9.086;2023-03-04T09:01:18;31.95;;;10.85;;
71937;SDS011;59810;48.800;9.086;2023-03-04T09:03:43;28.93;;;10.53;;
71937;SDS011;59810;48.800;9.086;2023-03-04T09:06:11;30.47;;;10.50;;
71937;SDS011;59810;48.800;9.086;2023-03-04T09:08:38;30.60;;;10.80;;
71937;SDS011;59810;48.800;9.086;2023-03-04T09:11:03;30.60;;;11.07;;
71937;SDS011;59810;48.800;9.086;2023-03-04T09:13:29;28.55;;;10.10;;
71937;SDS011;59810;48.800;9.086;2023-03-04T09:15:55;27.17;;;10.38;;
71937;SDS011;59810;48.800;9.086;2023-03-04T09:18:22;29.23;;;10.53;;
71937;SDS011;59810;48.800;9.086;2023-03-04T09:20:48;29.98;;;10.23;;
71937;SDS011;59810;48.800;9.086;2023-03-04T09:23:15;29.02;;;10.30;;
71937;SDS011;59810;48.800;9.086;2023-03-04T09:25:41;31.25;;;11.35;;
71937;SDS011;59810;48.800;9.086;2023-03-04T09:28:07;24.25;;;10.32;;
71937;SDS011;59810;48.800;9.086;2023-03-04T09:30:33;29.33;;;9.90;;
71937;SDS011;59810;48.800;9.086;2023-03-04T09:32:59;28.17;;;10.57;;
71937;SDS011;59810;48.800;9.086;2023-03-04T09:35:25;28.77;;;10.68;;
71937;SDS011;59810;48.800;9.086;2023-03-04T09:37:51;27.42;;;10.15;;
71937;SDS011;59810;48.800;9.086;2023-03-04T09:40:19;24.70;;;9.75;;
71937;SDS011;59810;48.800;9.086;2023-03-04T09:42:57;26.48;;;10.95;;
71937;SDS011;59810;48.800;9.086;2023-03-04T09:45:31;30.77;;;11.00;;
71937;SDS011;59810;48.800;9.086;2023-03-04T09:48:02;29.40;;;10.90;;
71937;SDS011;59810;48.800;9.086;2023-03-04T09:50:29;24.90;;;10.35;;
71937;SDS011;59810;48.800;9.086;2023-03-04T09:53:32;27.05;;;10.10;;
71937;SDS011;59810;48.800;9.086;2023-03-04T09:55:55;25.52;;;9.80;;
71937;SDS011;59810;48.800;9.086;2023-03-04T09:58:44;26.60;;;10.50;;
71937;SDS011;59810;48.800;9.086;2023-03-04T10:01:41;29.13;;;11.18;;
71937;SDS011;59810;48.800;9.086;2023-03-04T10:06:58;34.67;;;14.13;;
71937;SDS011;59810;48.800;9.086;2023-03-04T10:09:30;28.50;;;11.02;;
71937;SDS011;59810;48.800;9.086;2023-03-04T10:12:14;31.37;;;12.27;;
71937;SDS011;59810;48.800;9.086;2023-03-04T10:14:49;30.73;;;13.10;;
71937;SDS011;59810;48.800;9.086;2023-03-04T10:17:36;35.20;;;13.80;;
71937;SDS011;59810;48.800;9.086;2023-03-04T10:22:58;33.53;;;13.43;;
71937;SDS011;59810;48.800;9.086;2023-03-04T10:25:32;34.43;;;13.70;;
71937;SDS011;59810;48.800;9.086;2023-03-04T10:33:17;31.95;;;12.65;;
71937;SDS011;59810;48.800;9.086;2023-03-04T10:38:24;37.20;;;12.67;;
71937;SDS011;59810;48.800;9.086;2023-03-04T10:40:50;36.65;;;14.30;;
71937;SDS011;59810;48.800;9.086;2023-03-04T10:43:19;36.27;;;13.43;;
71937;SDS011;59810;48.800;9.086;2023-03-04T10:45:46;33.78;;;13.70;;
71937;SDS011;59810;48.800;9.086;2023-03-04T10:48:19;39.17;;;14.60;;
71937;SDS011;59810;48.800;9.086;2023-03-04T10:50:47;41.17;;;15.87;;
71937;SDS011;59810;48.800;9.086;2023-03-04T10:53:23;40.88;;;14.77;;
71937;SDS011;59810;48.800;9.086;2023-03-04T10:55:52;41.63;;;16.03;;
71937;SDS011;59810;48.800;9.086;2023-03-04T10:58:17;43.43;;;15.90;;
71937;SDS011;59810;48.800;9.086;2023-03-04T11:00:43;43.35;;;15.43;;
71937;SDS011;59810;48.800;9.086;2023-03-04T11:03:18;40.50;;;15.40;;
71937;SDS011;59810;48.800;9.086;2023-03-04T11:05:46;40.55;;;15.55;;
71937;SDS011;59810;48.800;9.086;2023-03-04T11:08:18;38.80;;;14.80;;
71937;SDS011;59810;48.800;9.086;2023-03-04T11:10:45;40.30;;;15.73;;
71937;SDS011;59810;48.800;9.086;2023-03-04T11:15:48;39.57;;;16.53;;
71937;SDS011;59810;48.800;9.086;2023-03-04T11:18:30;42.37;;;15.73;;
71937;SDS011;59810;48.800;9.086;2023-03-04T11:21:03;39.90;;;16.17;;
71937;SDS011;59810;48.800;9.086;2023-03-04T11:26:17;41.55;;;15.75;;
71937;SDS011;59810;48.800;9.086;2023-03-04T11:28:47;36.25;;;14.95;;
71937;SDS011;59810;48.800;9.086;2023-03-04T11:31:31;41.97;;;16.53;;
71937;SDS011;59810;48.800;9.086;2023-03-04T11:34:06;38.05;;;15.52;;
71937;SDS011;59810;48.800;9.086;2023-03-04T11:45:15;40.20;;;14.87;;
71937;SDS011;59810;48.800;9.086;2023-03-04T11:50:34;37.75;;;15.48;;
71937;SDS011;59810;48.800;9.086;2023-03-04T11:55:48;37.28;;;14.18;;
71937;SDS011;59810;48.800;9.086;2023-03-04T12:01:17;38.33;;;14.80;;
71937;SDS011;59810;48.800;9.086;2023-03-04T12:09:46;38.10;;;15.23;;
71937;SDS011;59810;48.800;9.086;2023-03-04T12:15:18;39.25;;;15.20;;
71937;SDS011;59810;48.800;9.086;2023-03-04T12:25:38;38.00;;;14.57;;
71937;SDS011;59810;48.800;9.086;2023-03-04T12:35:52;43.75;;;16.20;;
71937;SDS011;59810;48.800;9.086;2023-03-04T12:38:33;40.97;;;15.30;;
71937;SDS011;59810;48.800;9.086;2023-03-04T12:44:18;40.83;;;15.75;;
71937;SDS011;59810;48.800;9.086;2023-03-04T12:46:54;42.95;;;16.52;;
71937;SDS011;59810;48.800;9.086;2023-03-04T12:53:09;42.13;;;15.93;;
71937;SDS011;59810;48.800;9.086;2023-03-04T12:55:42;41.25;;;15.93;;
71937;SDS011;59810;48.800;9.086;2023-03-04T12:58:12;42.47;;;15.73;;
71937;SDS011;59810;48.800;9.086;2023-03-04T13:00:47;36.97;;;14.10;;
71937;SDS011;59810;48.800;9.086;2023-03-04T13:06:11;38.20;;;14.27;;
71937;SDS011;59810;48.800;9.086;2023-03-04T13:18:56;42.45;;;14.45;;
71937;SDS011;59810;48.800;9.086;2023-03-04T13:21:27;41.97;;;15.30;;
71937;SDS011;59810;48.800;9.086;2023-03-04T13:23:55;36.00;;;13.80;;
71937;SDS011;59810;48.800;9.086;2023-03-04T13:31:56;30.10;;;12.40;;
71937;SDS011;59810;48.800;9.086;2023-03-04T13:34:40;32.03;;;11.20;;
71937;SDS011;59810;48.800;9.086;2023-03-04T13:42:44;34.50;;;11.80;;
71937;SDS011;59810;48.800;9.086;2023-03-04T13:45:33;30.80;;;11.05;;
71937;SDS011;59810;48.800;9.086;2023-03-04T13:48:00;33.60;;;11.32;;
71937;SDS011;59810;48.800;9.086;2023-03-04T13:50:39;29.52;;;11.45;;
71937;SDS011;59810;48.800;9.086;2023-03-04T13:53:19;32.28;;;11.02;;
71937;SDS011;59810;48.800;9.086;2023-03-04T13:58:42;27.08;;;10.55;;
71937;SDS011;59810;48.800;9.086;2023-03-04T14:01:21;29.73;;;10.38;;
71937;SDS011;59810;48.800;9.086;2023-03-04T14:03:51;31.08;;;10.70;;
71937;SDS011;59810;48.800;9.086;2023-03-04T14:06:21;27.53;;;11.47;;
71937;SDS011;59810;48.800;9.086;2023-03-04T14:08:50;33.75;;;10.80;;
71937;SDS011;59810;48.800;9.086;2023-03-04T14:11:32;31.23;;;11.20;;
71937;SDS011;59810;48.800;9.086;2023-03-04T14:14:04;32.60;;;11.15;;
71937;SDS011;59810;48.800;9.086;2023-03-04T14:16:36;30.13;;;10.27;;
71937;SDS011;59810;48.800;9.086;2023-03-04T14:19:23;29.55;;;10.98;;
71937;SDS011;59810;48.800;9.086;2023-03-04T14:21:58;27.38;;;10.02;;
71937;SDS011;59810;48.800;9.086;2023-03-04T14:24:29;34.63;;;10.83;;
71937;SDS011;59810;48.800;9.086;2023-03-04T14:27:11;34.78;;;10.82;;
71937;SDS011;59810;48.800;9.086;2023-03-04T14:29:38;29.90;;;11.45;;
71937;SDS011;59810;48.800;9.086;2023-03-04T14:32:04;29.88;;;9.70;;
71937;SDS011;59810;48.800;9.086;2023-03-04T14:34:31;31.23;;;11.48;;
71937;SDS011;59810;48.800;9.086;2023-03-04T14:37:02;28.00;;;9.97;;
71937;SDS011;59810;48.800;9.086;2023-03-04T14:39:30;28.67;;;9.55;;
71937;SDS011;59810;48.800;9.086;2023-03-04T14:42:07;33.20;;;11.27;;
71937;SDS011;59810;48.800;9.086;2023-03-04T14:44:39;41.78;;;11.55;;
71937;SDS011;59810;48.800;9.086;2023-03-04T14:47:16;42.28;;;12.15;;
71937;SDS011;59810;48.800;9.086;2023-03-04T14:49:50;38.50;;;11.73;;
71937;SDS011;59810;48.800;9.086;2023-03-04T14:55:16;38.03;;;12.70;;
71937;SDS011;59810;48.800;9.086;2023-03-04T14:57:47;38.03;;;11.73;;
71937;SDS011;59810;48.800;9.086;2023-03-04T15:00:29;35.38;;;12.88;;
71937;SDS011;59810;48.800;9.086;2023-03-04T15:03:06;38.97;;;12.93;;
71937;SDS011;59810;48.800;9.086;2023-03-04T15:05:49;38.25;;;12.13;;
71937;SDS011;59810;48.800;9.086;2023-03-04T15:08:23;28.15;;;10.23;;
71937;SDS011;59810;48.800;9.086;2023-03-04T15:10:52;29.50;;;10.38;;
71937;SDS011;59810;48.800;9.086;2023-03-04T15:13:39;35.50;;;10.13;;
71937;SDS011;59810;48.800;9.086;2023-03-04T15:16:06;25.87;;;10.03;;
71937;SDS011;59810;48.800;9.086;2023-03-04T15:18:35;35.88;;;11.43;;
71937;SDS011;59810;48.800;9.086;2023-03-04T15:21:02;32.95;;;10.75;;
71937;SDS011;59810;48.800;9.086;2023-03-04T15:23:30;30.38;;;11.88;;
71937;SDS011;59810;48.800;9.086;2023-03-04T15:26:00;29.98;;;10.25;;
71937;SDS011;59810;48.800;9.086;2023-03-04T15:28:33;31.53;;;10.40;;
71937;SDS011;59810;48.800;9.086;2023-03-04T15:31:00;31.30;;;10.77;;
71937;SDS011;59810;48.800;9.086;2023-03-04T15:33:25;35.60;;;11.02;;
71937;SDS011;59810;48.800;9.086;2023-03-04T15:35:58;30.13;;;10.77;;
71937;SDS011;59810;48.800;9.086;2023-03-04T15:38:26;32.80;;;11.25;;
71937;SDS011;59810;48.800;9.086;2023-03-04T15:40:52;36.63;;;11.15;;
71937;SDS011;59810;48.800;9.086;2023-03-04T15:43:18;32.55;;;11.18;;
71937;SDS011;59810;48.800;9.086;2023-03-04T15:45:46;37.80;;;12.40;;
71937;SDS011;59810;48.800;9.086;2023-03-04T15:48:13;33.55;;;11.50;;
71937;SDS011;59810;48.800;9.086;2023-03-04T15:50:43;33.78;;;11.48;;
71937;SDS011;59810;48.800;9.086;2023-03-04T15:53:16;33.05;;;10.60;;
71937;SDS011;59810;48.800;9.086;2023-03-04T15:55:44;34.10;;;10.57;;
71937;SDS011;59810;48.800;9.086;2023-03-04T15:58:13;31.00;;;10.93;;
71937;SDS011;59810;48.800;9.086;2023-03-04T16:00:39;36.28;;;11.10;;
71937;SDS011;59810;48.800;9.086;2023-03-04T16:03:04;28.47;;;10.57;;
71937;SDS011;59810;48.800;9.086;2023-03-04T16:05:32;33.47;;;10.60;;
71937;SDS011;59810;48.800;9.086;2023-03-04T16:08:00;29.63;;;9.70;;
71937;SDS011;59810;48.800;9.086;2023-03-04T16:10:29;29.75;;;10.55;;